createdAt,value
2023-07-19T00:00:30.174Z,3.60
2023-07-19T00:03:18.105Z,3.00
2023-07-19T00:05:46.190Z,3.20
2023-07-19T00:08:15.661Z,3.00
2023-07-19T00:10:43.764Z,3.50
2023-07-19T00:13:11.804Z,3.10
2023-07-19T00:15:39.760Z,3.00
2023-07-19T00:18:07.819Z,5.20
2023-07-19T00:20:35.834Z,3.90
2023-07-19T00:23:03.952Z,4.20
2023-07-19T00:25:32.856Z,4.60
2023-07-19T00:28:00.796Z,3.40
2023-07-19T00:30:29.461Z,4.10
2023-07-19T00:32:57.761Z,4.50
2023-07-19T00:35:27.363Z,4.30
2023-07-19T00:37:55.546Z,4.00
2023-07-19T00:40:23.683Z,3.90
2023-07-19T00:42:58.680Z,3.40
2023-07-19T00:45:27.958Z,3.00
2023-07-19T00:47:57.985Z,3.20
2023-07-19T00:50:26.040Z,3.00
2023-07-19T00:52:54.171Z,3.20
2023-07-19T00:55:22.214Z,2.80
2023-07-19T00:57:50.313Z,2.70
2023-07-19T01:00:19.602Z,3.50
2023-07-19T01:02:47.818Z,3.20
2023-07-19T01:05:17.552Z,3.10
2023-07-19T01:07:45.876Z,4.10
2023-07-19T01:10:14.496Z,4.50
2023-07-19T01:12:42.531Z,4.40
2023-07-19T01:15:11.243Z,4.70
2023-07-19T01:17:39.392Z,5.00
2023-07-19T01:20:09.878Z,4.90
2023-07-19T01:22:38.005Z,5.00
2023-07-19T01:25:06.641Z,5.20
2023-07-19T01:27:34.558Z,5.30
2023-07-19T01:30:02.616Z,6.30
2023-07-19T01:32:30.697Z,5.70
2023-07-19T01:34:58.967Z,5.60
2023-07-19T01:37:29.398Z,5.90
2023-07-19T01:39:57.411Z,5.50
2023-07-19T01:42:25.458Z,5.50
2023-07-19T01:44:55.107Z,5.90
2023-07-19T01:47:23.291Z,5.00
2023-07-19T01:49:51.296Z,4.90
2023-07-19T01:52:20.024Z,4.70
2023-07-19T01:54:48.148Z,4.60
2023-07-19T01:57:16.398Z,4.90
2023-07-19T01:59:44.727Z,4.40
2023-07-19T02:02:12.990Z,5.30
2023-07-19T02:04:42.558Z,5.30
2023-07-19T02:07:10.720Z,4.10
2023-07-19T02:09:38.739Z,4.00
2023-07-19T02:12:07.367Z,4.00
2023-07-19T02:14:35.620Z,4.30
2023-07-19T02:17:04.575Z,4.20
2023-07-19T02:19:34.823Z,4.60
2023-07-19T02:22:02.894Z,4.80
2023-07-19T02:24:31.296Z,4.90
2023-07-19T02:26:59.903Z,4.80
2023-07-19T02:29:27.996Z,5.00
2023-07-19T02:31:56.514Z,5.90
2023-07-19T02:34:24.550Z,9.90
2023-07-19T02:36:52.748Z,6.20
2023-07-19T02:39:22.171Z,4.80
2023-07-19T02:41:50.199Z,4.90
2023-07-19T02:44:18.317Z,4.70
2023-07-19T02:46:46.688Z,4.20
2023-07-19T02:49:15.050Z,4.40
2023-07-19T02:51:43.114Z,4.40
2023-07-19T02:54:11.533Z,4.20
2023-07-19T02:56:39.689Z,4.10
2023-07-19T02:59:07.757Z,4.50
2023-07-19T03:01:37.628Z,4.40
2023-07-19T03:04:07.858Z,4.10
2023-07-19T03:06:36.213Z,4.10
2023-07-19T03:09:04.412Z,4.40
2023-07-19T03:11:32.415Z,4.80
2023-07-19T03:14:00.541Z,4.40
2023-07-19T03:16:28.677Z,4.80
2023-07-19T03:18:56.760Z,4.40
2023-07-19T03:21:24.910Z,3.90
2023-07-19T03:23:52.957Z,4.40
2023-07-19T03:26:20.963Z,3.60
2023-07-19T03:28:49.564Z,4.10
2023-07-19T03:31:18.100Z,4.60
2023-07-19T03:33:46.450Z,3.70
2023-07-19T03:36:14.461Z,3.90
2023-07-19T03:38:42.617Z,3.90
2023-07-19T03:41:11.578Z,4.00
2023-07-19T03:43:40.022Z,4.30
2023-07-19T03:46:09.282Z,4.70
2023-07-19T03:48:39.349Z,4.80
2023-07-19T03:51:07.913Z,5.30
2023-07-19T03:53:36.111Z,6.30
2023-07-19T03:56:04.593Z,5.90
2023-07-19T03:58:33.712Z,5.50
2023-07-19T04:01:04.324Z,6.80
2023-07-19T04:03:32.683Z,5.60
2023-07-19T04:06:00.971Z,7.60
2023-07-19T04:08:29.150Z,5.70
2023-07-19T04:10:57.207Z,7.10
2023-07-19T04:13:28.949Z,17.80
2023-07-19T04:15:57.370Z,11.70
2023-07-19T04:18:28.353Z,15.80
2023-07-19T04:20:58.696Z,30.90
2023-07-19T04:23:29.060Z,11.10
2023-07-19T04:25:57.234Z,15.40
2023-07-19T04:28:25.472Z,6.30
2023-07-19T04:30:53.597Z,9.50
2023-07-19T04:33:21.814Z,7.30
2023-07-19T04:35:52.150Z,15.60
2023-07-19T04:38:23.675Z,6.10
2023-07-19T04:40:51.761Z,5.00
2023-07-19T04:43:26.673Z,5.00
2023-07-19T04:45:56.781Z,5.10
2023-07-19T04:48:26.576Z,6.50
2023-07-19T04:50:57.845Z,9.20
2023-07-19T04:53:26.756Z,5.80
2023-07-19T04:55:57.453Z,5.20
2023-07-19T04:58:27.444Z,5.10
2023-07-19T05:00:55.664Z,5.10
2023-07-19T05:03:23.736Z,4.50
2023-07-19T05:05:51.712Z,5.00
2023-07-19T05:08:20.268Z,4.90
2023-07-19T05:10:48.268Z,4.70
2023-07-19T05:13:16.431Z,4.80
2023-07-19T05:15:44.546Z,4.30
2023-07-19T05:18:15.337Z,4.30
2023-07-19T05:20:43.545Z,4.20
2023-07-19T05:23:13.398Z,4.20
2023-07-19T05:25:41.613Z,4.50
2023-07-19T05:28:09.630Z,4.40
2023-07-19T05:30:37.660Z,5.00
2023-07-19T05:33:05.709Z,3.90
2023-07-19T05:35:35.058Z,4.70
2023-07-19T05:38:04.577Z,4.80
2023-07-19T05:40:32.770Z,4.90
2023-07-19T05:43:00.832Z,4.80
2023-07-19T05:45:28.944Z,4.30
2023-07-19T05:47:57.027Z,4.20
2023-07-19T05:50:25.091Z,4.40
2023-07-19T05:52:53.185Z,4.00
2023-07-19T05:55:21.201Z,4.70
2023-07-19T05:57:49.346Z,4.40
2023-07-19T06:00:25.987Z,4.90
2023-07-19T06:02:55.879Z,4.20
2023-07-19T06:05:26.134Z,4.90
2023-07-19T06:07:54.502Z,4.30
2023-07-19T06:10:22.714Z,4.50
2023-07-19T06:12:51.442Z,4.50
2023-07-19T06:15:19.544Z,4.00
2023-07-19T06:17:48.018Z,3.80
2023-07-19T06:20:16.078Z,4.10
2023-07-19T06:22:45.115Z,4.00
2023-07-19T06:25:13.407Z,3.60
2023-07-19T06:27:41.638Z,3.80
2023-07-19T06:30:11.356Z,3.20
2023-07-19T06:32:39.759Z,3.40
2023-07-19T06:35:10.505Z,3.30
2023-07-19T06:37:40.287Z,3.50
2023-07-19T06:40:09.340Z,3.60
2023-07-19T06:42:37.638Z,2.90
2023-07-19T06:45:06.431Z,3.10
2023-07-19T06:47:34.500Z,3.30
2023-07-19T06:50:03.022Z,3.20
2023-07-19T06:52:31.013Z,3.30
2023-07-19T06:54:58.967Z,3.20
2023-07-19T06:57:26.971Z,3.20
2023-07-19T06:59:55.017Z,2.70
2023-07-19T07:02:23.009Z,3.00
2023-07-19T07:04:51.687Z,2.90
2023-07-19T07:07:20.781Z,2.70
2023-07-19T07:09:48.951Z,2.80
2023-07-19T07:12:17.101Z,2.20
2023-07-19T07:14:45.179Z,2.40
2023-07-19T07:17:13.309Z,2.60
2023-07-19T07:19:41.415Z,3.30
2023-07-19T07:22:09.406Z,2.40
2023-07-19T07:24:37.390Z,2.60
2023-07-19T07:27:06.366Z,2.40
2023-07-19T07:29:34.331Z,2.20
2023-07-19T07:32:02.383Z,2.20
2023-07-19T07:34:30.489Z,2.50
2023-07-19T07:36:58.567Z,2.60
2023-07-19T07:39:26.587Z,2.40
2023-07-19T07:41:54.646Z,2.40
2023-07-19T07:44:22.776Z,2.30
2023-07-19T07:46:51.345Z,2.30
2023-07-19T07:49:19.390Z,2.10
2023-07-19T07:51:47.458Z,2.50
2023-07-19T07:54:15.581Z,1.80
2023-07-19T07:56:43.579Z,2.20
2023-07-19T07:59:11.627Z,1.80
2023-07-19T08:01:39.652Z,1.90
2023-07-19T08:04:10.338Z,1.90
2023-07-19T08:06:39.923Z,2.50
2023-07-19T08:09:07.940Z,2.10
2023-07-19T08:11:36.045Z,2.10
2023-07-19T08:14:04.095Z,2.30
2023-07-19T08:16:32.095Z,2.10
2023-07-19T08:19:00.196Z,2.10
2023-07-19T08:21:36.026Z,2.50
2023-07-19T08:24:05.604Z,2.40
2023-07-19T08:26:33.572Z,2.30
2023-07-19T08:29:01.583Z,2.10
2023-07-19T08:31:29.759Z,2.20
2023-07-19T08:33:57.999Z,2.30
2023-07-19T08:36:26.154Z,1.80
2023-07-19T08:38:54.351Z,1.90
2023-07-19T08:41:24.559Z,2.20
2023-07-19T08:43:56.823Z,2.00
2023-07-19T08:46:25.876Z,2.00
2023-07-19T08:48:54.068Z,1.80
2023-07-19T08:51:22.922Z,1.80
2023-07-19T08:53:51.129Z,2.40
2023-07-19T08:56:21.615Z,2.40
2023-07-19T08:58:49.678Z,2.10
2023-07-19T09:01:17.806Z,2.30
2023-07-19T09:03:46.125Z,2.00
2023-07-19T09:06:24.008Z,1.80
2023-07-19T09:08:53.319Z,2.20
2023-07-19T09:11:24.537Z,2.20
2023-07-19T09:13:57.621Z,2.10
2023-07-19T09:16:31.208Z,2.20
2023-07-19T09:19:00.904Z,1.90
2023-07-19T09:21:43.647Z,2.20
2023-07-19T09:24:13.204Z,2.10
2023-07-19T09:26:58.837Z,2.30
2023-07-19T09:29:32.154Z,1.90
2023-07-19T09:32:03.468Z,1.90
2023-07-19T09:34:39.444Z,2.10
2023-07-19T09:37:07.581Z,1.60
2023-07-19T09:39:36.436Z,1.80
2023-07-19T09:42:05.765Z,1.70
2023-07-19T09:44:35.064Z,1.70
2023-07-19T09:47:14.427Z,2.00
2023-07-19T09:49:47.047Z,2.00
2023-07-19T09:52:18.911Z,1.90
2023-07-19T09:54:47.140Z,1.80
2023-07-19T09:57:18.393Z,2.00
2023-07-19T09:59:51.217Z,2.00
2023-07-19T10:02:22.688Z,1.90
2023-07-19T10:04:52.456Z,2.20
2023-07-19T10:07:22.456Z,2.30
2023-07-19T10:09:53.679Z,1.90
2023-07-19T10:12:26.485Z,1.70
2023-07-19T10:15:01.457Z,2.00
2023-07-19T10:17:33.363Z,1.80
2023-07-19T10:20:14.263Z,1.60
2023-07-19T10:22:58.940Z,1.80
2023-07-19T10:25:29.201Z,2.00
2023-07-19T10:27:58.250Z,1.70
2023-07-19T10:30:45.586Z,1.60
2023-07-19T10:33:25.682Z,2.20
2023-07-19T10:35:56.818Z,1.90
2023-07-19T10:38:27.522Z,1.70
2023-07-19T10:41:04.273Z,2.40
2023-07-19T10:46:08.273Z,1.80
2023-07-19T10:48:41.578Z,1.90
2023-07-19T10:51:12.803Z,1.70
2023-07-19T10:53:41.844Z,2.30
2023-07-19T10:56:10.084Z,1.80
2023-07-19T10:58:38.527Z,1.80
2023-07-19T11:01:07.500Z,2.10
2023-07-19T11:03:35.819Z,2.10
2023-07-19T11:06:08.537Z,2.00
2023-07-19T11:08:36.673Z,1.70
2023-07-19T11:11:05.198Z,2.00
2023-07-19T11:13:33.911Z,2.80
2023-07-19T11:16:02.455Z,2.20
2023-07-19T11:18:36.416Z,1.90
2023-07-19T11:21:05.297Z,2.10
2023-07-19T11:23:39.617Z,1.80
2023-07-19T11:26:13.063Z,1.60
2023-07-19T11:28:54.030Z,1.90
2023-07-19T11:31:42.223Z,2.30
2023-07-19T11:34:17.801Z,1.80
2023-07-19T11:36:47.896Z,1.70
2023-07-19T11:39:22.580Z,1.90
2023-07-19T11:41:50.899Z,1.90
2023-07-19T11:44:21.775Z,1.80
2023-07-19T11:46:50.622Z,1.80
2023-07-19T11:49:19.663Z,2.10
2023-07-19T11:51:48.328Z,2.10
2023-07-19T11:54:16.574Z,1.90
2023-07-19T11:56:44.862Z,2.10
2023-07-19T11:59:12.868Z,2.00
2023-07-19T12:01:41.569Z,1.70
2023-07-19T12:04:10.260Z,2.00
2023-07-19T12:06:38.586Z,1.90
2023-07-19T12:09:06.622Z,1.90
2023-07-19T12:11:34.675Z,1.70
2023-07-19T12:14:03.545Z,1.70
2023-07-19T12:16:31.716Z,1.70
2023-07-19T12:18:59.851Z,2.10
2023-07-19T12:21:28.238Z,1.90
2023-07-19T12:23:59.566Z,1.90
2023-07-19T12:28:59.301Z,1.70
2023-07-19T12:31:27.586Z,2.10
2023-07-19T12:33:58.195Z,1.80
2023-07-19T12:36:26.405Z,2.00
2023-07-19T12:38:56.312Z,1.80
2023-07-19T12:41:24.350Z,1.40
2023-07-19T12:43:52.449Z,2.10
2023-07-19T12:46:21.218Z,2.00
2023-07-19T12:48:52.635Z,1.80
2023-07-19T12:51:21.293Z,1.80
2023-07-19T12:53:50.585Z,1.40
2023-07-19T12:56:19.690Z,1.60
2023-07-19T12:58:48.320Z,1.40
2023-07-19T13:01:16.884Z,1.70
2023-07-19T13:03:45.328Z,1.60
2023-07-19T13:06:13.505Z,1.60
2023-07-19T13:08:41.916Z,1.70
2023-07-19T13:11:10.282Z,1.60
2023-07-19T13:13:38.326Z,1.50
2023-07-19T13:16:06.381Z,1.50
2023-07-19T13:18:34.536Z,1.40
2023-07-19T13:21:02.624Z,1.80
2023-07-19T13:23:30.650Z,1.70
2023-07-19T13:25:58.767Z,1.60
2023-07-19T13:28:26.977Z,1.60
2023-07-19T13:30:59.324Z,1.50
2023-07-19T13:33:29.089Z,1.50
2023-07-19T13:36:00.045Z,1.80
2023-07-19T13:38:29.002Z,1.50
2023-07-19T13:40:57.075Z,1.50
2023-07-19T13:43:25.370Z,1.20
2023-07-19T13:45:53.628Z,1.50
2023-07-19T13:48:21.710Z,1.60
2023-07-19T13:50:49.698Z,1.60
2023-07-19T13:53:17.637Z,1.50
2023-07-19T13:55:45.637Z,1.50
2023-07-19T13:58:15.109Z,1.40
2023-07-19T14:00:43.386Z,1.60
2023-07-19T14:03:13.185Z,1.50
2023-07-19T14:05:41.386Z,1.10
2023-07-19T14:08:10.119Z,1.30
2023-07-19T14:10:38.512Z,1.40
2023-07-19T14:13:08.521Z,1.50
2023-07-19T14:15:37.451Z,1.60
2023-07-19T14:18:16.586Z,1.50
2023-07-19T14:20:46.313Z,1.60
2023-07-19T14:23:14.599Z,1.80
2023-07-19T14:25:42.807Z,1.70
2023-07-19T14:28:11.467Z,1.80
2023-07-19T14:30:40.808Z,2.00
2023-07-19T14:33:09.497Z,1.60
2023-07-19T14:35:37.695Z,1.20
2023-07-19T14:38:05.780Z,1.60
2023-07-19T14:40:38.397Z,1.80
2023-07-19T14:43:06.523Z,1.90
2023-07-19T14:45:36.142Z,1.80
2023-07-19T14:48:04.725Z,1.90
2023-07-19T14:50:32.888Z,1.60
2023-07-19T14:53:08.179Z,2.30
2023-07-19T14:55:36.415Z,1.90
2023-07-19T14:58:04.386Z,1.80
2023-07-19T15:03:03.397Z,2.00
2023-07-19T15:05:31.547Z,2.20
2023-07-19T15:07:59.551Z,2.80
2023-07-19T15:10:27.571Z,2.20
2023-07-19T15:12:57.138Z,2.30
2023-07-19T15:15:25.624Z,1.90
2023-07-19T15:17:54.549Z,1.90
2023-07-19T15:20:23.767Z,1.80
2023-07-19T15:22:55.290Z,1.60
2023-07-19T15:25:24.516Z,2.00
2023-07-19T15:27:52.862Z,1.90
2023-07-19T15:30:21.183Z,1.70
2023-07-19T15:32:49.263Z,2.10
2023-07-19T15:35:17.449Z,1.80
2023-07-19T15:37:45.754Z,1.80
2023-07-19T15:40:14.081Z,2.30
2023-07-19T15:42:42.081Z,1.90
2023-07-19T15:45:12.472Z,1.70
2023-07-19T15:47:40.810Z,1.90
2023-07-19T15:50:09.506Z,2.20
2023-07-19T15:52:37.962Z,2.20
2023-07-19T15:55:06.497Z,2.10
2023-07-19T15:57:34.559Z,2.20
2023-07-19T16:00:02.665Z,2.00
2023-07-19T16:02:33.629Z,1.80
2023-07-19T16:05:01.788Z,2.00
2023-07-19T16:07:29.927Z,1.90
2023-07-19T16:09:58.031Z,1.90
2023-07-19T16:12:26.189Z,2.00
2023-07-19T16:14:54.249Z,1.80
2023-07-19T16:17:22.287Z,2.10
2023-07-19T16:19:50.622Z,1.60
2023-07-19T16:22:18.656Z,2.00
2023-07-19T16:24:46.649Z,2.20
2023-07-19T16:27:14.692Z,2.00
2023-07-19T16:29:42.693Z,2.40
2023-07-19T16:32:10.833Z,2.00
2023-07-19T16:34:38.915Z,2.20
2023-07-19T16:37:07.458Z,2.30
2023-07-19T16:39:35.733Z,2.30
2023-07-19T16:42:05.337Z,2.60
2023-07-19T16:44:33.348Z,2.20
2023-07-19T16:47:01.480Z,2.40
2023-07-19T16:49:29.523Z,2.20
2023-07-19T16:51:59.087Z,2.50
2023-07-19T16:54:27.166Z,2.20
2023-07-19T16:56:55.212Z,2.20
2023-07-19T16:59:23.893Z,2.20
2023-07-19T17:01:52.026Z,2.70
2023-07-19T17:04:20.100Z,2.50
2023-07-19T17:06:48.371Z,2.30
2023-07-19T17:09:16.376Z,2.10
2023-07-19T17:11:44.451Z,2.10
2023-07-19T17:14:12.587Z,2.00
2023-07-19T17:16:40.530Z,2.10
2023-07-19T17:19:15.805Z,2.60
2023-07-19T17:21:46.242Z,2.20
2023-07-19T17:24:14.473Z,2.20
2023-07-19T17:26:42.676Z,2.40
2023-07-19T17:29:10.706Z,2.50
2023-07-19T17:31:38.729Z,2.20
2023-07-19T17:34:06.822Z,2.00
2023-07-19T17:36:34.919Z,2.00
2023-07-19T17:39:02.862Z,2.30
2023-07-19T17:41:30.926Z,2.50
2023-07-19T17:43:59.948Z,2.30
2023-07-19T17:46:28.057Z,2.00
2023-07-19T17:48:56.101Z,2.30
2023-07-19T17:51:24.258Z,2.00
2023-07-19T17:53:52.427Z,2.60
2023-07-19T17:56:20.499Z,2.80
2023-07-19T17:58:51.395Z,2.30
2023-07-19T18:01:20.941Z,2.70
2023-07-19T18:03:49.819Z,2.60
2023-07-19T18:06:19.362Z,3.00
2023-07-19T18:08:47.396Z,2.80
2023-07-19T18:11:15.552Z,2.80
2023-07-19T18:13:43.657Z,2.60
2023-07-19T18:16:11.652Z,3.30
2023-07-19T18:18:39.729Z,2.30
2023-07-19T18:21:07.717Z,2.50
2023-07-19T18:23:38.532Z,3.10
2023-07-19T18:26:06.698Z,3.40
2023-07-19T18:28:36.432Z,3.30
2023-07-19T18:31:04.809Z,3.40
2023-07-19T18:33:33.361Z,3.10
2023-07-19T18:36:01.380Z,2.70
2023-07-19T18:38:29.553Z,3.30
2023-07-19T18:40:57.929Z,2.80
2023-07-19T18:43:26.066Z,2.90
2023-07-19T18:45:55.764Z,3.20
2023-07-19T18:48:24.228Z,2.90
2023-07-19T18:50:52.252Z,3.10
2023-07-19T18:53:26.202Z,2.70
2023-07-19T18:55:54.273Z,3.10
2023-07-19T18:58:22.334Z,3.00
2023-07-19T19:00:50.428Z,3.10
2023-07-19T19:03:18.579Z,2.90
2023-07-19T19:05:47.717Z,2.80
2023-07-19T19:08:17.175Z,3.00
2023-07-19T19:10:45.597Z,3.40
2023-07-19T19:13:13.635Z,2.70
2023-07-19T19:15:41.977Z,3.40
2023-07-19T19:18:10.523Z,3.30
2023-07-19T19:20:38.638Z,3.80
2023-07-19T19:23:08.785Z,3.20
2023-07-19T19:25:36.866Z,3.10
2023-07-19T19:30:50.484Z,3.20
2023-07-19T19:33:18.817Z,4.00
2023-07-19T19:35:46.873Z,3.90
2023-07-19T19:38:15.322Z,3.90
2023-07-19T19:40:43.594Z,3.70
2023-07-19T19:43:11.570Z,3.90
2023-07-19T19:45:39.567Z,3.90
2023-07-19T19:48:07.769Z,3.90
2023-07-19T19:50:35.787Z,4.00
2023-07-19T19:53:10.473Z,3.70
2023-07-19T19:58:12.226Z,3.80
2023-07-19T20:00:41.766Z,3.40
2023-07-19T20:08:12.782Z,3.50
2023-07-19T20:10:59.185Z,3.80
2023-07-19T20:13:28.075Z,3.90
2023-07-19T20:16:00.878Z,3.40
2023-07-19T20:21:01.121Z,3.70
2023-07-19T20:23:29.511Z,3.60
2023-07-19T20:26:11.886Z,3.70
2023-07-19T20:28:41.574Z,4.10
2023-07-19T20:31:09.547Z,3.80
2023-07-19T20:33:41.833Z,4.10
2023-07-19T20:36:45.643Z,3.80
2023-07-19T20:38:59.702Z,3.50
2023-07-19T20:43:58.975Z,3.60
2023-07-19T20:46:26.956Z,3.40
2023-07-19T20:49:04.379Z,3.90
2023-07-19T20:51:34.334Z,4.00
2023-07-19T20:54:06.553Z,3.30
2023-07-19T20:56:37.173Z,3.30
2023-07-19T20:59:08.569Z,3.70
2023-07-19T21:01:40.054Z,3.50
2023-07-19T21:04:08.704Z,3.50
2023-07-19T21:06:39.869Z,4.40
2023-07-19T21:09:07.932Z,3.80
2023-07-19T21:11:36.536Z,3.90
2023-07-19T21:14:04.744Z,3.40
2023-07-19T21:16:33.398Z,3.70
2023-07-19T21:19:01.517Z,3.90
2023-07-19T21:21:29.746Z,4.20
2023-07-19T21:23:57.777Z,3.80
2023-07-19T21:26:26.155Z,4.10
2023-07-19T21:28:54.160Z,4.70
2023-07-19T21:31:27.399Z,4.80
2023-07-19T21:33:58.119Z,4.90
2023-07-19T21:36:26.323Z,4.50
2023-07-19T21:38:54.264Z,4.50
2023-07-19T21:41:22.446Z,4.10
2023-07-19T21:43:50.758Z,4.30
2023-07-19T21:46:18.979Z,4.70
2023-07-19T21:48:47.151Z,4.40
2023-07-19T21:51:15.290Z,5.00
2023-07-19T21:53:43.208Z,4.50
2023-07-19T21:56:11.110Z,4.40
2023-07-19T21:58:39.151Z,4.40
2023-07-19T22:01:07.200Z,4.70
2023-07-19T22:03:35.260Z,4.40
2023-07-19T22:06:03.822Z,5.10
2023-07-19T22:08:31.935Z,5.60
2023-07-19T22:10:59.996Z,5.50
2023-07-19T22:13:28.122Z,4.90
2023-07-19T22:15:56.031Z,4.90
2023-07-19T22:18:27.584Z,4.60
2023-07-19T22:21:07.210Z,5.90
2023-07-19T22:23:44.034Z,4.50
2023-07-19T22:26:12.032Z,5.00
2023-07-19T22:28:40.137Z,5.40
2023-07-19T22:31:08.173Z,5.40
2023-07-19T22:33:36.214Z,5.10
2023-07-19T22:36:04.740Z,5.60
2023-07-19T22:38:33.157Z,5.60
2023-07-19T22:41:01.132Z,5.10
2023-07-19T22:43:29.822Z,6.00
2023-07-19T22:45:57.853Z,5.80
2023-07-19T22:48:25.904Z,5.80
2023-07-19T22:50:54.009Z,5.20
2023-07-19T22:53:22.362Z,5.10
2023-07-19T22:55:50.493Z,4.60
2023-07-19T22:58:18.457Z,5.40
2023-07-19T23:00:48.183Z,5.40
2023-07-19T23:03:16.257Z,5.60
2023-07-19T23:05:44.212Z,5.70
2023-07-19T23:08:12.159Z,5.80
2023-07-19T23:10:40.144Z,5.60
2023-07-19T23:13:08.220Z,6.30
2023-07-19T23:15:36.198Z,6.40
2023-07-19T23:18:04.213Z,6.10
2023-07-19T23:20:32.308Z,6.40
2023-07-19T23:23:01.329Z,6.40
2023-07-19T23:25:29.426Z,5.70
2023-07-19T23:28:01.173Z,6.40
2023-07-19T23:30:29.520Z,6.10
2023-07-19T23:32:58.974Z,6.30
2023-07-19T23:35:27.110Z,6.10
2023-07-19T23:37:56.013Z,6.00
2023-07-19T23:40:24.415Z,6.00
2023-07-19T23:42:52.834Z,7.20
2023-07-19T23:45:20.923Z,6.80
2023-07-19T23:47:49.962Z,7.30
2023-07-19T23:50:18.308Z,6.50
2023-07-19T23:52:46.324Z,7.50
2023-07-19T23:55:14.485Z,7.10
2023-07-19T23:57:42.377Z,6.50
